What Cheer, Iowa
Current Conditions -  °F | °C
As of 2:35 PM on Friday 19 Dec 2014 (Local Time) from KOOA Reporting Station
Overcast Overcast  
Wind Chill: 23°   Ceiling: 4600
Heat Index: 30°   Visibility: 7mi
Dew Point: 26°   Wind: 7mph
Humidity: 85%   Direction: 150°SSE
Pressure: 30.26"   Gusts: NA
Location:  41.4°N, 92.35°W
Report Text: KOOA 192035Z AUTO 15006KT 7SM OVC046 M01/M03 A3026 RMK AO2 T10101032
Loading
Personal Weather Stations






























Interactive Weather Map New forecast layout! Learn more

10-Day Weather Forecast

Advertisements
Track Severe Weather on mobile